Time;durP1;ratioP1;P1;durP2;ratioP2;P2;SDS_P1;SDS_P2;PMS_P1;PMS_P2;Temp;Humidity;BMP_temperature;BMP_pressure;BME280_temperature;BME280_humidity;BME280_pressure;Samples;Min_cycle;Max_cycle;Signal;HPM_P1;HPM_P2
2023/05/10 04:04:38;;;;;;;5.93;4.62;;;;;;;14.18;65.82;100716.38;5637790;31;79778;-56
2023/05/10 04:07:41;;;;;;;6.68;4.43;;;;;;;14.18;65.82;100716.38;5623993;31;33209;-56
2023/05/10 04:10:44;;;;;;;9.50;4.80;;;;;;;13.74;74.60;100717.63;5607620;31;33588;-56
2023/05/10 04:13:46;;;;;;;5.82;4.62;;;;;;;13.79;68.90;100714.03;5603186;31;34226;-57
2023/05/10 04:16:48;;;;;;;10.20;4.93;;;;;;;13.76;68.02;100709.25;5603256;31;33545;-56
2023/05/10 04:19:54;;;;;;;5.87;4.68;;;;;;;13.76;71.08;100706.53;5603211;31;33117;-56
2023/05/10 04:22:56;;;;;;;9.43;4.85;;;;;;;13.89;67.86;100702.31;5603164;31;33473;-57
2023/05/10 04:26:00;;;;;;;7.12;4.65;;;;;;;13.95;65.92;100707.31;5616010;31;33501;-57
2023/05/10 04:29:02;;;;;;;7.60;4.20;;;;;;;13.84;65.40;100713.94;5622786;31;33557;-56
2023/05/10 04:32:04;;;;;;;9.30;4.70;;;;;;;13.75;66.71;100713.03;5623144;31;33549;-56
2023/05/10 04:35:07;;;;;;;7.50;4.93;;;;;;;13.89;67.76;100715.78;5622612;31;33755;-57
2023/05/10 04:38:09;;;;;;;5.45;4.57;;;;;;;13.95;67.89;100717.31;5623105;31;33515;-56
2023/05/10 04:41:12;;;;;;;5.85;4.82;;;;;;;14.00;63.89;100714.50;5608403;31;33669;-56
2023/05/10 04:44:14;;;;;;;6.68;5.03;;;;;;;14.03;64.34;100709.31;5622337;31;33549;-56
2023/05/10 04:47:16;;;;;;;10.35;5.20;;;;;;;14.01;63.83;100719.63;5622749;31;33651;-56
2023/05/10 04:50:19;;;;;;;8.85;4.85;;;;;;;13.91;76.56;100713.56;5622827;31;33690;-57
2023/05/10 04:53:21;;;;;;;6.93;4.93;;;;;;;14.05;68.57;100717.94;5622188;31;33672;-57
2023/05/10 04:56:23;;;;;;;6.28;4.75;;;;;;;13.99;64.35;100713.72;5621817;31;34125;-56
2023/05/10 04:59:26;;;;;;;6.60;4.55;;;;;;;14.04;64.92;100712.84;5622541;31;34284;-57
2023/05/10 05:02:28;;;;;;;8.30;5.43;;;;;;;14.08;63.86;100711.16;5622169;31;33568;-56
2023/05/10 05:05:31;;;;;;;7.80;5.07;;;;;;;14.21;67.33;100713.09;5615641;31;33680;-56
2023/05/10 05:08:33;;;;;;;9.98;5.10;;;;;;;14.46;72.96;100713.72;5602549;31;34275;-57
2023/05/10 05:11:35;;;;;;;7.18;4.70;;;;;;;14.32;64.47;100719.09;5618610;31;34210;-56
2023/05/10 05:14:38;;;;;;;8.93;5.35;;;;;;;14.72;67.39;100711.37;5602137;31;33667;-57
2023/05/10 05:17:40;;;;;;;8.50;5.50;;;;;;;14.73;68.07;100724.56;5591424;31;34395;-56
2023/05/10 05:20:42;;;;;;;9.43;5.60;;;;;;;14.96;66.27;100722.75;5589629;31;33606;-56
2023/05/10 05:23:45;;;;;;;11.00;5.80;;;;;;;14.95;67.13;100717.69;5589921;31;34458;-56
2023/05/10 05:26:48;;;;;;;39.25;7.68;;;;;;;14.95;63.43;100729.28;5589047;31;33631;-57
2023/05/10 05:29:52;;;;;;;9.77;5.78;;;;;;;14.94;65.30;100727.69;5588539;31;33217;-57
2023/05/10 05:32:54;;;;;;;8.15;5.32;;;;;;;15.06;64.99;100734.47;5589048;31;34285;-56
2023/05/10 05:35:57;;;;;;;9.95;5.25;;;;;;;15.17;62.37;100733.16;5600904;31;33288;-57
2023/05/10 05:39:02;;;;;;;8.93;5.03;;;;;;;15.30;61.72;100729.66;5608836;31;33264;-57
2023/05/10 05:42:05;;;;;;;12.50;4.85;;;;;;;15.41;70.52;100739.13;5609028;31;33620;-56
2023/05/10 05:45:12;;;;;;;6.43;4.72;;;;;;;15.50;63.82;100739.22;5602775;31;33598;-57
2023/05/10 05:48:17;;;;;;;9.98;5.28;;;;;;;15.75;60.87;100745.94;5582247;31;33567;-57
2023/05/10 05:51:21;;;;;;;9.07;4.85;;;;;;;15.80;59.98;100737.75;5590712;31;34143;-56
2023/05/10 05:54:25;;;;;;;8.95;5.10;;;;;;;15.79;60.40;100741.53;5605937;31;32330;-58
2023/05/10 05:57:27;;;;;;;7.62;4.78;;;;;;;15.85;58.20;100744.91;5608346;31;34251;-57
2023/05/10 06:00:29;;;;;;;19.42;5.87;;;;;;;15.93;61.74;100747.69;5597098;31;33562;-56
2023/05/10 06:03:33;;;;;;;6.82;4.78;;;;;;;16.09;58.20;100744.59;5607934;31;33562;-56
2023/05/10 06:06:38;;;;;;;;;;;;;;;16.17;58.13;100752.00;5604969;31;33590;-57
2023/05/10 06:09:41;;;;;;;7.47;5.03;;;;;;;16.01;59.46;100745.34;5592952;31;33521;-56
2023/05/10 06:12:43;;;;;;;11.35;6.20;;;;;;;16.24;61.32;100748.84;5593712;31;32104;-58
2023/05/10 06:15:46;;;;;;;7.07;4.28;;;;;;;16.30;66.39;100756.53;5588889;31;34287;-56
2023/05/10 06:18:48;;;;;;;9.60;4.50;;;;;;;16.41;58.18;100754.34;5593698;31;33539;-57
2023/05/10 06:21:51;;;;;;;11.55;4.57;;;;;;;16.47;64.04;100757.75;5603152;31;33646;-57
2023/05/10 06:24:55;;;;;;;8.52;4.40;;;;;;;16.61;62.08;100761.94;5607489;31;32892;-56
2023/05/10 06:27:57;;;;;;;5.62;4.55;;;;;;;16.84;63.44;100762.72;5601141;31;33097;-58
2023/05/10 06:31:01;;;;;;;6.43;4.53;;;;;;;16.88;56.01;100757.47;5602529;31;33714;-56
2023/05/10 06:34:04;;;;;;;8.55;4.35;;;;;;;16.97;60.31;100762.94;5596620;31;33603;-57
2023/05/10 06:37:06;;;;;;;9.57;4.90;;;;;;;17.02;59.06;100762.75;5592422;31;34321;-56
2023/05/10 06:40:09;;;;;;;7.97;4.55;;;;;;;17.02;55.00;100768.19;5599220;31;33769;-56
2023/05/10 06:43:11;;;;;;;6.07;4.90;;;;;;;16.97;55.24;100758.31;5583487;31;32216;-56
2023/05/10 06:46:14;;;;;;;6.10;4.53;;;;;;;16.97;55.90;100758.31;5597517;31;34460;-56
2023/05/10 06:49:16;;;;;;;11.48;4.43;;;;;;;17.17;58.54;100754.22;5594923;31;33736;-57
2023/05/10 06:52:19;;;;;;;6.93;4.18;;;;;;;17.29;57.85;100751.69;5608050;31;34632;-57
2023/05/10 06:55:22;;;;;;;5.78;4.22;;;;;;;17.37;57.80;100756.31;5588876;31;33281;-57
2023/05/10 06:58:27;;;;;;;6.97;3.90;;;;;;;17.35;57.45;100752.31;5598248;31;34328;-58
2023/05/10 07:01:30;;;;;;;7.53;4.22;;;;;;;17.43;56.54;100748.06;5595659;31;33762;-56
2023/05/10 07:04:33;;;;;;;6.97;4.40;;;;;;;17.31;56.77;100744.03;5597485;31;34340;-58
2023/05/10 07:07:36;;;;;;;7.00;4.40;;;;;;;17.31;56.06;100744.03;5587940;31;33753;-56
2023/05/10 07:10:38;;;;;;;7.22;5.28;;;;;;;17.36;60.30;100749.31;5605731;31;33615;-57
2023/05/10 07:13:43;;;;;;;6.85;4.75;;;;;;;17.38;54.94;100738.16;5596218;31;34245;-57
2023/05/10 07:16:47;;;;;;;7.55;4.68;;;;;;;17.35;58.05;100745.03;5587990;31;33575;-57
2023/05/10 07:19:49;;;;;;;7.18;5.12;;;;;;;17.40;56.36;100741.34;5589123;31;33412;-56
2023/05/10 07:22:51;;;;;;;7.15;4.95;;;;;;;17.36;56.38;100743.09;5598897;31;33130;-57
2023/05/10 07:25:53;;;;;;;7.03;5.25;;;;;;;17.31;58.95;100744.03;5606200;31;33603;-57
2023/05/10 07:28:56;;;;;;;8.35;4.97;;;;;;;17.38;57.78;100741.69;5589747;31;33689;-58
2023/05/10 07:31:58;;;;;;;8.20;4.93;;;;;;;17.32;56.11;100740.22;5594372;31;33191;-57
2023/05/10 07:35:01;;;;;;;7.62;4.35;;;;;;;17.36;56.14;100734.97;5605623;31;33679;-56
2023/05/10 07:38:03;;;;;;;30.90;7.95;;;;;;;17.28;54.82;100730.31;5592587;31;33643;-56
2023/05/10 07:41:05;;;;;;;5.95;3.87;;;;;;;17.49;54.83;100730.53;5596188;31;34196;-57
2023/05/10 07:44:08;;;;;;;5.05;4.10;;;;;;;17.52;59.64;100732.59;5598880;31;33935;-56
2023/05/10 07:47:10;;;;;;;27.40;5.97;;;;;;;17.58;58.97;100734.03;5597099;31;34277;-56
2023/05/10 07:50:12;;;;;;;275.87;21.80;;;;;;;17.57;63.01;100727.00;5597490;31;33632;-56
2023/05/10 07:53:15;;;;;;;7.53;4.37;;;;;;;17.64;58.03;100732.75;5587411;31;34341;-58
2023/05/10 07:56:30;;;;;;;9.38;4.75;;;;;;;17.48;53.09;100731.63;5588888;31;33984;-57
2023/05/10 07:59:33;;;;;;;10.38;4.40;;;;;;;17.34;55.28;100746.13;5603297;31;33508;-56
2023/05/10 08:02:35;;;;;;;7.00;4.28;;;;;;;17.29;56.42;100740.06;5600093;31;34405;-56
2023/05/10 08:05:38;;;;;;;9.85;4.50;;;;;;;17.22;55.08;100739.72;5602893;31;34305;-57
2023/05/10 08:08:40;;;;;;;4.40;3.90;;;;;;;17.04;56.39;100741.59;5606586;31;33765;-56
2023/05/10 08:11:42;;;;;;;5.10;3.97;;;;;;;17.24;57.97;100732.06;5588019;31;34276;-56
2023/05/10 08:14:45;;;;;;;7.32;4.18;;;;;;;17.39;55.79;100728.91;5587134;31;33627;-57
2023/05/10 08:17:48;;;;;;;8.98;4.35;;;;;;;17.71;56.34;100732.28;5589599;31;33542;-57
2023/05/10 08:20:51;;;;;;;13.35;4.00;;;;;;;17.66;51.86;100727.03;5606931;31;33760;-56
2023/05/10 08:23:54;;;;;;;7.03;4.35;;;;;;;17.56;55.68;100739.78;5587239;31;33321;-57
2023/05/10 08:27:05;;;;;;;4.22;3.62;;;;;;;17.50;57.47;100732.91;5586975;31;33665;-57
2023/05/10 08:30:08;;;;;;;6.20;3.95;;;;;;;17.52;56.02;100732.59;5589718;31;33678;-57
2023/05/10 08:33:11;;;;;;;6.10;4.45;;;;;;;17.69;55.41;100723.69;5593606;31;34315;-57
2023/05/10 08:36:19;;;;;;;7.62;3.72;;;;;;;17.79;55.35;100726.09;5606186;31;34217;-56
2023/05/10 08:39:23;;;;;;;11.38;4.25;;;;;;;18.02;57.93;100734.84;5595079;31;33805;-57
2023/05/10 08:42:37;;;;;;;8.30;4.12;;;;;;;18.07;53.36;100726.53;5599346;31;33640;-57
2023/05/10 08:45:43;;;;;;;9.50;3.92;;;;;;;17.98;53.36;100717.59;5605797;31;33618;-56
2023/05/10 08:48:47;;;;;;;15.90;4.67;;;;;;;17.73;61.36;100722.72;5600548;31;34266;-56
2023/05/10 08:51:55;;;;;;;17.67;4.57;;;;;;;17.66;54.21;100716.19;5606766;31;33386;-56
2023/05/10 08:54:59;;;;;;;10.05;4.10;;;;;;;17.79;56.75;100721.47;5607953;31;33651;-56
2023/05/10 08:58:03;;;;;;;15.25;4.70;;;;;;;17.68;52.55;100714.75;5604087;31;33648;-57
2023/05/10 09:01:07;;;;;;;30.20;5.47;;;;;;;17.56;55.12;100720.78;5599708;31;32159;-57
2023/05/10 09:04:10;;;;;;;8.65;4.05;;;;;;;17.71;55.07;100724.94;5599291;31;33747;-56
2023/05/10 09:07:13;;;;;;;7.65;4.25;;;;;;;17.93;53.11;100712.34;5601923;31;33563;-57
2023/05/10 09:10:16;;;;;;;7.07;3.95;;;;;;;17.88;52.98;100726.06;5598745;31;34655;-57
2023/05/10 09:13:19;;;;;;;5.05;4.18;;;;;;;18.01;52.96;100717.78;5595759;31;34327;-56
2023/05/10 09:16:22;;;;;;;21.75;4.15;;;;;;;18.05;60.55;100717.94;5592668;31;34260;-56
2023/05/10 09:19:24;;;;;;;5.55;3.83;;;;;;;18.00;53.36;100718.87;5596398;31;33368;-57
2023/05/10 09:22:27;;;;;;;7.15;3.80;;;;;;;18.00;52.16;100718.87;5598804;31;34466;-56
2023/05/10 09:25:29;;;;;;;8.85;4.20;;;;;;;18.07;53.08;100716.47;5603777;31;33631;-57
2023/05/10 09:28:51;;;;;;;9.75;4.18;;;;;;;18.06;51.21;100714.09;5593364;31;33991;-56
2023/05/10 09:31:56;;;;;;;12.20;3.95;;;;;;;17.93;56.00;100709.66;5593820;31;33976;-57
2023/05/10 09:35:06;;;;;;;18.67;4.20;;;;;;;18.14;54.39;100709.75;5598199;31;34285;-57
2023/05/10 09:38:10;;;;;;;8.25;3.62;;;;;;;18.23;51.67;100705.91;5594689;31;34248;-57
2023/05/10 09:41:22;;;;;;;5.78;3.83;;;;;;;18.48;54.34;100706.16;5590235;31;34203;-57
2023/05/10 09:44:25;;;;;;;7.57;3.65;;;;;;;18.59;50.51;100701.94;5591207;31;33613;-57
2023/05/10 09:47:28;;;;;;;6.55;4.10;;;;;;;18.57;50.52;100701.47;5594019;31;33300;-57
2023/05/10 09:50:31;;;;;;;9.02;3.83;;;;;;;18.55;50.10;100701.81;5592504;31;33656;-57
2023/05/10 09:53:33;;;;;;;17.05;3.87;;;;;;;18.62;51.11;100703.22;5589366;31;33719;-56
2023/05/10 09:56:38;;;;;;;4.60;3.50;;;;;;;18.59;50.83;100695.72;5590179;31;34024;-57
2023/05/10 09:59:43;;;;;;;5.33;4.13;;;;;;;18.47;49.07;100702.63;5602402;31;33768;-56
2023/05/10 10:02:47;;;;;;;4.72;3.42;;;;;;;18.35;49.21;100696.31;5598435;31;33529;-57
2023/05/10 10:05:51;;;;;;;7.28;3.90;;;;;;;18.35;51.27;100694.37;5595614;31;33626;-56
2023/05/10 10:08:54;;;;;;;6.10;3.55;;;;;;;18.37;51.71;100688.63;5588480;31;33287;-57
2023/05/10 10:11:59;;;;;;;5.00;3.40;;;;;;;18.56;53.53;100680.87;5601983;31;33789;-57
2023/05/10 10:15:02;;;;;;;6.20;3.60;;;;;;;18.66;48.88;100683.22;5607964;31;34422;-57
2023/05/10 10:18:12;;;;;;;5.00;3.00;;;;;;;18.89;51.98;100682.97;5607653;31;33356;-57
2023/05/10 10:21:15;;;;;;;3.67;3.10;;;;;;;18.95;50.91;100676.25;5596336;31;33816;-57
2023/05/10 10:24:19;;;;;;;9.63;3.55;;;;;;;19.00;49.73;100671.37;5596588;31;33321;-57
2023/05/10 10:27:28;;;;;;;7.85;3.28;;;;;;;19.13;51.14;100671.47;5601979;31;33655;-56
2023/05/10 10:30:43;;;;;;;5.65;3.28;;;;;;;19.18;50.39;100672.09;5600396;31;34346;-56
2023/05/10 10:34:09;;;;;;;15.33;3.50;;;;;;;19.14;49.13;100663.00;5594205;31;33631;-56
2023/05/10 10:37:12;;;;;;;4.72;2.90;;;;;;;18.95;48.85;100657.22;5591582;31;33456;-56
2023/05/10 10:40:25;;;;;;;4.00;3.08;;;;;;;18.89;47.15;100658.53;5606400;31;33482;-56
2023/05/10 10:43:29;;;;;;;3.62;2.80;;;;;;;18.76;45.68;100663.06;5595588;31;33302;-57
2023/05/10 10:46:34;;;;;;;3.47;3.08;;;;;;;18.75;48.07;100662.28;5594476;31;34386;-57
2023/05/10 10:49:39;;;;;;;3.72;2.67;;;;;;;18.85;49.70;100655.69;5593042;31;33237;-56
2023/05/10 10:52:49;;;;;;;7.57;3.00;;;;;;;19.06;50.28;100655.69;5588911;31;34422;-57
2023/05/10 10:56:05;;;;;;;3.83;2.70;;;;;;;19.02;53.84;100652.06;5595241;31;33603;-57
2023/05/10 10:59:08;;;;;;;3.90;2.78;;;;;;;18.99;51.75;100653.50;5594016;31;34347;-56
2023/05/10 11:02:35;;;;;;;6.28;3.12;;;;;;;19.18;46.37;100641.41;5595928;31;33705;-57
2023/05/10 11:05:37;;;;;;;5.10;2.75;;;;;;;19.14;44.90;100627.69;5593490;31;33809;-56
2023/05/10 11:08:43;;;;;;;7.05;3.15;;;;;;;19.25;47.56;100625.34;5600759;31;32207;-57
2023/05/10 11:11:51;;;;;;;;;;;;;;;19.31;50.59;100644.97;5603943;31;34858;-56
2023/05/10 11:14:57;;;;;;;5.07;2.78;;;;;;;19.22;45.02;100634.97;5607865;31;34098;-56
2023/05/10 11:18:16;;;;;;;4.82;2.83;;;;;;;19.13;48.00;100625.28;5607373;31;34270;-58
2023/05/10 11:21:18;;;;;;;6.75;2.95;;;;;;;19.24;49.04;100621.06;5592233;31;34356;-57
2023/05/10 11:24:23;;;;;;;4.05;2.40;;;;;;;19.16;46.74;100614.53;5586647;31;34387;-56
2023/05/10 11:27:25;;;;;;;5.35;2.47;;;;;;;19.32;48.25;100622.88;5595475;31;33663;-56
2023/05/10 11:30:28;;;;;;;4.20;2.35;;;;;;;19.44;45.72;100608.56;5595188;31;33470;-57
2023/05/10 11:33:43;;;;;;;4.37;2.53;;;;;;;19.56;46.72;100608.59;5594384;31;33779;-56
2023/05/10 11:36:51;;;;;;;3.22;2.00;;;;;;;19.63;45.19;100616.19;5592789;31;33778;-57
2023/05/10 11:39:54;;;;;;;3.03;2.30;;;;;;;19.59;44.56;100604.41;5592943;31;33706;-57
2023/05/10 11:42:57;;;;;;;5.05;2.25;;;;;;;19.54;42.57;100602.72;5598611;31;34945;-56
2023/05/10 11:45:59;;;;;;;2.85;2.20;;;;;;;19.42;44.26;100606.16;5591460;31;33652;-56
2023/05/10 11:49:03;;;;;;;2.25;2.00;;;;;;;19.56;46.62;100605.88;5595658;31;33872;-56
2023/05/10 11:52:08;;;;;;;5.10;2.22;;;;;;;19.44;44.03;100605.84;5597056;31;34168;-57
2023/05/10 11:55:10;;;;;;;7.35;2.65;;;;;;;19.50;51.52;100601.75;5606952;31;33717;-56
2023/05/10 11:58:13;;;;;;;6.45;2.42;;;;;;;19.37;48.32;100595.50;5606168;31;34506;-56
2023/05/10 12:01:15;;;;;;;5.05;2.08;;;;;;;19.59;44.81;100607.91;5588066;31;33686;-57
2023/05/10 12:04:18;;;;;;;8.30;2.40;;;;;;;19.60;42.75;100598.66;5593090;31;34479;-56
2023/05/10 12:07:21;;;;;;;7.80;2.40;;;;;;;19.70;43.77;100602.87;5594568;31;33697;-56
2023/05/10 12:10:27;;;;;;;5.15;2.30;;;;;;;19.82;45.20;100599.41;5594408;31;33721;-56
2023/05/10 12:13:29;;;;;;;12.20;2.28;;;;;;;19.87;43.74;100601.91;5597938;31;34329;-56
2023/05/10 12:16:32;;;;;;;3.30;2.10;;;;;;;19.86;43.15;100609.25;5598581;31;33805;-57
2023/05/10 12:19:38;;;;;;;2.90;2.37;;;;;;;19.71;47.64;100609.91;5591979;31;33850;-57
2023/05/10 12:22:51;;;;;;;6.32;2.60;;;;;;;19.60;46.01;100601.38;5599101;31;33650;-56
2023/05/10 12:26:01;;;;;;;3.58;2.33;;;;;;;19.68;44.60;100602.44;5595934;31;34387;-56
2023/05/10 12:29:15;;;;;;;3.80;1.98;;;;;;;19.70;45.33;100597.44;5595272;31;34318;-57
2023/05/10 12:32:17;;;;;;;2.92;2.35;;;;;;;19.63;42.50;100595.25;5592241;31;33272;-57
2023/05/10 12:35:21;;;;;;;4.93;2.75;;;;;;;19.45;41.80;100585.69;5594962;31;32449;-57
2023/05/10 12:38:34;;;;;;;2.95;2.20;;;;;;;19.48;45.98;100585.81;5608015;31;33812;-57
2023/05/10 12:41:37;;;;;;;5.07;2.00;;;;;;;19.57;43.30;100584.91;5609263;31;33595;-57
2023/05/10 12:44:41;;;;;;;4.18;2.35;;;;;;;19.52;44.08;100582.41;5596945;31;33828;-56
2023/05/10 12:47:43;;;;;;;3.10;2.20;;;;;;;19.65;47.00;100587.56;5601234;31;34759;-57
2023/05/10 12:50:46;;;;;;;5.78;2.35;;;;;;;19.68;47.86;100580.69;5609269;31;34313;-56
2023/05/10 12:53:48;;;;;;;8.70;2.33;;;;;;;19.70;43.05;100570.22;5609006;31;33621;-56
2023/05/10 12:56:50;;;;;;;4.43;2.30;;;;;;;19.63;44.04;100570.78;5609212;31;33482;-56
2023/05/10 12:59:53;;;;;;;4.65;2.37;;;;;;;19.66;45.24;100561.16;5599935;31;33691;-56
2023/05/10 13:02:56;;;;;;;7.00;2.28;;;;;;;19.73;44.27;100560.62;5588950;31;33333;-56
2023/05/10 13:05:58;;;;;;;7.50;2.25;;;;;;;19.66;43.46;100559.25;5589020;31;33571;-56
2023/05/10 13:09:00;;;;;;;2.10;1.90;;;;;;;19.66;43.70;100553.78;5589112;31;33684;-56
2023/05/10 13:12:03;;;;;;;5.28;1.85;;;;;;;19.71;41.22;100548.16;5590273;31;33735;-56
2023/05/10 13:15:06;;;;;;;8.57;2.20;;;;;;;19.68;44.22;100539.88;5595494;31;34277;-56
2023/05/10 13:18:09;;;;;;;10.25;2.40;;;;;;;19.84;43.82;100548.19;5597072;31;33738;-56
2023/05/10 13:21:11;;;;;;;8.18;2.20;;;;;;;19.86;42.60;100545.91;5608792;31;33652;-56
2023/05/10 13:24:14;;;;;;;6.75;2.40;;;;;;;19.93;41.01;100536.06;5599252;31;33753;-56
2023/05/10 13:27:16;;;;;;;4.53;1.87;;;;;;;19.98;42.53;100528.81;5595457;31;33301;-57
2023/05/10 13:30:18;;;;;;;8.00;1.75;;;;;;;19.91;41.56;100529.38;5595571;31;33654;-57
2023/05/10 13:33:20;;;;;;;18.60;2.70;;;;;;;19.88;43.80;100528.13;5590014;31;33586;-57
2023/05/10 13:36:23;;;;;;;15.98;2.53;;;;;;;19.82;45.07;100526.75;5588213;31;33688;-56
2023/05/10 13:39:25;;;;;;;5.75;2.30;;;;;;;19.81;42.21;100524.38;5588856;31;34511;-57
2023/05/10 13:42:28;;;;;;;20.60;3.15;;;;;;;19.76;42.64;100519.13;5590547;31;33565;-57
2023/05/10 13:45:30;;;;;;;9.63;2.50;;;;;;;19.76;41.06;100519.94;5597207;31;33338;-57
2023/05/10 13:48:32;;;;;;;10.45;2.47;;;;;;;19.77;42.10;100520.72;5608398;31;33598;-57
2023/05/10 13:51:35;;;;;;;14.90;2.10;;;;;;;19.79;43.38;100513.81;5607455;31;33223;-58
2023/05/10 13:54:38;;;;;;;18.10;3.12;;;;;;;19.79;44.27;100513.03;5589128;31;34464;-56
2023/05/10 13:57:40;;;;;;;9.35;2.40;;;;;;;19.76;45.74;100508.25;5589040;31;34350;-56
2023/05/10 14:00:43;;;;;;;20.42;2.50;;;;;;;19.82;48.29;100506.91;5588645;31;33705;-56
2023/05/10 14:03:45;;;;;;;4.85;1.73;;;;;;;19.76;44.53;100505.53;5594986;31;34322;-57
2023/05/10 14:06:47;;;;;;;7.30;2.00;;;;;;;19.77;43.17;100501.69;5592665;31;34232;-56
2023/05/10 14:09:50;;;;;;;7.45;2.40;;;;;;;19.72;40.41;100497.25;5588894;31;33798;-57
2023/05/10 14:12:52;;;;;;;6.53;2.50;;;;;;;19.76;44.71;100490.00;5588863;31;33650;-56
2023/05/10 14:15:55;;;;;;;6.75;2.05;;;;;;;19.87;41.20;100483.00;5591385;31;33705;-57
2023/05/10 14:18:57;;;;;;;12.45;2.03;;;;;;;19.93;38.41;100486.28;5608816;31;33956;-57
2023/05/10 14:22:00;;;;;;;16.58;2.20;;;;;;;19.95;36.97;100484.81;5604378;31;33731;-57
2023/05/10 14:25:02;;;;;;;5.95;1.73;;;;;;;19.99;41.17;100476.75;5597421;31;34334;-57
2023/05/10 14:28:05;;;;;;;8.00;2.10;;;;;;;20.00;38.66;100477.53;5608411;31;33686;-56
2023/05/10 14:31:07;;;;;;;14.40;2.60;;;;;;;19.93;39.21;100475.38;5608433;31;33641;-56
2023/05/10 14:34:10;;;;;;;5.47;1.95;;;;;;;19.92;41.62;100477.31;5608926;31;33312;-56
2023/05/10 14:37:13;;;;;;;5.28;1.98;;;;;;;19.99;37.87;100479.47;5599864;31;33747;-56
2023/05/10 14:40:16;;;;;;;11.60;3.22;;;;;;;20.03;40.52;100474.94;5603827;31;33704;-57
2023/05/10 14:43:19;;;;;;;8.65;2.03;;;;;;;20.14;39.66;100472.56;5591021;31;33841;-56
2023/05/10 14:46:21;;;;;;;3.17;2.15;;;;;;;20.18;38.43;100468.78;5607719;31;34447;-57
2023/05/10 14:49:25;;;;;;;1.60;1.50;;;;;;;20.26;42.58;100474.44;5606019;31;34366;-56
2023/05/10 14:52:27;;;;;;;6.85;1.80;;;;;;;20.21;37.55;100466.53;5591848;31;33697;-57
2023/05/10 14:55:30;;;;;;;3.42;1.48;;;;;;;20.25;39.13;100467.44;5605598;31;33793;-57
2023/05/10 14:58:32;;;;;;;4.43;1.70;;;;;;;20.33;38.17;100456.41;5604392;31;34145;-56
2023/05/10 15:01:37;;;;;;;4.28;1.50;;;;;;;20.34;39.66;100458.00;5607552;31;34228;-56
2023/05/10 15:04:40;;;;;;;7.32;1.90;;;;;;;20.41;39.34;100462.84;5607461;31;34508;-55
2023/05/10 15:07:43;;;;;;;3.95;1.83;;;;;;;20.36;38.64;100468.53;5607958;31;33662;-56
2023/05/10 15:10:46;;;;;;;6.25;1.62;;;;;;;20.21;40.71;100461.88;5608129;31;33711;-55
2023/05/10 15:13:48;;;;;;;6.90;1.95;;;;;;;20.08;40.60;100476.63;5608361;31;34308;-56
2023/05/10 15:16:51;;;;;;;7.10;2.72;;;;;;;20.01;39.54;100468.25;5608548;31;33369;-55
2023/05/10 15:19:53;;;;;;;7.37;1.80;;;;;;;20.00;38.80;100474.81;5607788;31;33656;-56
2023/05/10 15:22:55;;;;;;;3.00;1.60;;;;;;;19.93;39.94;100473.50;5608167;31;33574;-56
